sensor_id;sensor_type;location;lat;lon;timestamp;P1;durP1;ratioP1;P2;durP2;ratioP2
4452;SDS011;2239;48.152;11.584;2024-02-15T00:00:03;4.90;;;1.70;;
4452;SDS011;2239;48.152;11.584;2024-02-15T00:02:29;3.87;;;1.70;;
4452;SDS011;2239;48.152;11.584;2024-02-15T00:04:55;2.53;;;1.60;;
4452;SDS011;2239;48.152;11.584;2024-02-15T00:07:21;4.17;;;2.00;;
4452;SDS011;2239;48.152;11.584;2024-02-15T00:09:48;2.17;;;1.50;;
4452;SDS011;2239;48.152;11.584;2024-02-15T00:12:13;1.87;;;1.27;;
4452;SDS011;2239;48.152;11.584;2024-02-15T00:14:39;3.20;;;1.60;;
4452;SDS011;2239;48.152;11.584;2024-02-15T00:17:05;2.73;;;1.50;;
4452;SDS011;2239;48.152;11.584;2024-02-15T00:19:30;1.47;;;1.30;;
4452;SDS011;2239;48.152;11.584;2024-02-15T00:21:56;2.83;;;1.60;;
4452;SDS011;2239;48.152;11.584;2024-02-15T00:24:22;5.20;;;1.63;;
4452;SDS011;2239;48.152;11.584;2024-02-15T00:26:49;4.67;;;1.70;;
4452;SDS011;2239;48.152;11.584;2024-02-15T00:29:16;3.30;;;1.67;;
4452;SDS011;2239;48.152;11.584;2024-02-15T00:31:42;2.60;;;1.60;;
4452;SDS011;2239;48.152;11.584;2024-02-15T00:34:07;2.37;;;1.70;;
4452;SDS011;2239;48.152;11.584;2024-02-15T00:36:33;1.33;;;1.13;;
4452;SDS011;2239;48.152;11.584;2024-02-15T00:38:59;3.57;;;1.50;;
4452;SDS011;2239;48.152;11.584;2024-02-15T00:41:24;1.70;;;1.20;;
4452;SDS011;2239;48.152;11.584;2024-02-15T00:43:50;5.03;;;1.30;;
4452;SDS011;2239;48.152;11.584;2024-02-15T00:46:16;2.63;;;1.60;;
4452;SDS011;2239;48.152;11.584;2024-02-15T00:48:41;2.77;;;1.70;;
4452;SDS011;2239;48.152;11.584;2024-02-15T00:51:07;2.33;;;1.20;;
4452;SDS011;2239;48.152;11.584;2024-02-15T00:53:33;3.43;;;1.53;;
4452;SDS011;2239;48.152;11.584;2024-02-15T00:55:58;2.30;;;1.27;;
4452;SDS011;2239;48.152;11.584;2024-02-15T00:58:24;2.27;;;1.47;;
4452;SDS011;2239;48.152;11.584;2024-02-15T01:00:52;3.63;;;1.60;;
4452;SDS011;2239;48.152;11.584;2024-02-15T01:03:18;5.53;;;1.60;;
4452;SDS011;2239;48.152;11.584;2024-02-15T01:05:44;2.70;;;1.67;;
4452;SDS011;2239;48.152;11.584;2024-02-15T01:08:10;3.07;;;1.80;;
4452;SDS011;2239;48.152;11.584;2024-02-15T01:10:36;3.73;;;1.50;;
4452;SDS011;2239;48.152;11.584;2024-02-15T01:13:01;2.40;;;1.50;;
4452;SDS011;2239;48.152;11.584;2024-02-15T01:15:27;2.43;;;1.50;;
4452;SDS011;2239;48.152;11.584;2024-02-15T01:17:53;2.50;;;1.30;;
4452;SDS011;2239;48.152;11.584;2024-02-15T01:20:18;3.80;;;1.53;;
4452;SDS011;2239;48.152;11.584;2024-02-15T01:22:46;3.07;;;1.63;;
4452;SDS011;2239;48.152;11.584;2024-02-15T01:25:11;2.13;;;1.30;;
4452;SDS011;2239;48.152;11.584;2024-02-15T01:27:38;3.47;;;1.47;;
4452;SDS011;2239;48.152;11.584;2024-02-15T01:30:04;1.60;;;1.03;;
4452;SDS011;2239;48.152;11.584;2024-02-15T01:32:30;2.73;;;1.33;;
4452;SDS011;2239;48.152;11.584;2024-02-15T01:34:56;1.57;;;1.43;;
4452;SDS011;2239;48.152;11.584;2024-02-15T01:37:22;2.40;;;1.50;;
4452;SDS011;2239;48.152;11.584;2024-02-15T01:39:47;2.00;;;1.30;;
4452;SDS011;2239;48.152;11.584;2024-02-15T01:42:14;2.40;;;1.30;;
4452;SDS011;2239;48.152;11.584;2024-02-15T01:44:40;2.03;;;1.40;;
4452;SDS011;2239;48.152;11.584;2024-02-15T01:47:06;3.73;;;1.50;;
4452;SDS011;2239;48.152;11.584;2024-02-15T01:49:33;3.73;;;1.23;;
4452;SDS011;2239;48.152;11.584;2024-02-15T01:51:59;1.87;;;1.50;;
4452;SDS011;2239;48.152;11.584;2024-02-15T01:54:27;1.43;;;1.30;;
4452;SDS011;2239;48.152;11.584;2024-02-15T01:56:53;3.13;;;1.30;;
4452;SDS011;2239;48.152;11.584;2024-02-15T01:59:20;1.70;;;1.30;;
4452;SDS011;2239;48.152;11.584;2024-02-15T02:01:48;2.67;;;1.30;;
4452;SDS011;2239;48.152;11.584;2024-02-15T02:04:15;2.73;;;1.10;;
4452;SDS011;2239;48.152;11.584;2024-02-15T02:06:40;1.73;;;1.20;;
4452;SDS011;2239;48.152;11.584;2024-02-15T02:09:07;4.50;;;1.27;;
4452;SDS011;2239;48.152;11.584;2024-02-15T02:11:38;2.20;;;1.63;;
4452;SDS011;2239;48.152;11.584;2024-02-15T02:14:03;2.20;;;1.30;;
4452;SDS011;2239;48.152;11.584;2024-02-15T02:16:29;6.93;;;1.60;;
4452;SDS011;2239;48.152;11.584;2024-02-15T02:18:57;1.73;;;1.20;;
4452;SDS011;2239;48.152;11.584;2024-02-15T02:21:27;2.27;;;1.30;;
4452;SDS011;2239;48.152;11.584;2024-02-15T02:23:57;2.50;;;1.23;;
4452;SDS011;2239;48.152;11.584;2024-02-15T02:26:23;8.27;;;1.40;;
4452;SDS011;2239;48.152;11.584;2024-02-15T02:28:50;4.57;;;1.53;;
4452;SDS011;2239;48.152;11.584;2024-02-15T02:31:19;2.60;;;1.30;;
4452;SDS011;2239;48.152;11.584;2024-02-15T02:33:47;1.70;;;1.37;;
4452;SDS011;2239;48.152;11.584;2024-02-15T02:36:16;1.37;;;1.27;;
4452;SDS011;2239;48.152;11.584;2024-02-15T02:38:42;3.07;;;1.30;;
4452;SDS011;2239;48.152;11.584;2024-02-15T02:41:10;1.90;;;1.20;;
4452;SDS011;2239;48.152;11.584;2024-02-15T02:43:36;2.37;;;1.47;;
4452;SDS011;2239;48.152;11.584;2024-02-15T02:46:02;2.73;;;1.50;;
4452;SDS011;2239;48.152;11.584;2024-02-15T02:48:30;1.90;;;1.27;;
4452;SDS011;2239;48.152;11.584;2024-02-15T02:50:56;1.50;;;1.20;;
4452;SDS011;2239;48.152;11.584;2024-02-15T02:53:22;3.00;;;1.30;;
4452;SDS011;2239;48.152;11.584;2024-02-15T02:55:49;4.20;;;1.60;;
4452;SDS011;2239;48.152;11.584;2024-02-15T02:58:14;2.80;;;1.30;;
4452;SDS011;2239;48.152;11.584;2024-02-15T03:00:40;2.90;;;1.40;;
4452;SDS011;2239;48.152;11.584;2024-02-15T03:03:06;6.37;;;1.30;;
4452;SDS011;2239;48.152;11.584;2024-02-15T03:05:31;3.13;;;1.10;;
4452;SDS011;2239;48.152;11.584;2024-02-15T03:07:57;3.30;;;1.40;;
4452;SDS011;2239;48.152;11.584;2024-02-15T03:10:22;2.33;;;1.30;;
4452;SDS011;2239;48.152;11.584;2024-02-15T03:12:49;2.57;;;1.43;;
4452;SDS011;2239;48.152;11.584;2024-02-15T03:15:15;4.90;;;1.33;;
4452;SDS011;2239;48.152;11.584;2024-02-15T03:17:41;5.47;;;1.37;;
4452;SDS011;2239;48.152;11.584;2024-02-15T03:20:08;2.37;;;1.40;;
4452;SDS011;2239;48.152;11.584;2024-02-15T03:22:58;2.20;;;1.40;;
4452;SDS011;2239;48.152;11.584;2024-02-15T03:25:25;3.87;;;1.70;;
4452;SDS011;2239;48.152;11.584;2024-02-15T03:27:54;4.53;;;1.77;;
4452;SDS011;2239;48.152;11.584;2024-02-15T03:30:21;2.53;;;1.30;;
4452;SDS011;2239;48.152;11.584;2024-02-15T03:32:49;3.93;;;1.43;;
4452;SDS011;2239;48.152;11.584;2024-02-15T03:35:16;4.00;;;1.40;;
4452;SDS011;2239;48.152;11.584;2024-02-15T03:37:43;5.20;;;1.70;;
4452;SDS011;2239;48.152;11.584;2024-02-15T03:40:08;2.57;;;1.47;;
4452;SDS011;2239;48.152;11.584;2024-02-15T03:42:35;2.40;;;1.23;;
4452;SDS011;2239;48.152;11.584;2024-02-15T03:45:02;3.27;;;1.30;;
4452;SDS011;2239;48.152;11.584;2024-02-15T03:47:31;2.17;;;1.20;;
4452;SDS011;2239;48.152;11.584;2024-02-15T03:49:58;1.70;;;1.23;;
4452;SDS011;2239;48.152;11.584;2024-02-15T03:52:24;1.20;;;1.00;;
4452;SDS011;2239;48.152;11.584;2024-02-15T03:54:50;3.70;;;1.50;;
4452;SDS011;2239;48.152;11.584;2024-02-15T03:57:15;3.97;;;1.40;;
4452;SDS011;2239;48.152;11.584;2024-02-15T03:59:42;2.20;;;1.30;;
4452;SDS011;2239;48.152;11.584;2024-02-15T04:02:07;3.63;;;1.30;;
4452;SDS011;2239;48.152;11.584;2024-02-15T04:04:39;3.50;;;1.50;;
4452;SDS011;2239;48.152;11.584;2024-02-15T04:07:07;1.93;;;1.50;;
4452;SDS011;2239;48.152;11.584;2024-02-15T04:09:33;4.57;;;1.37;;
4452;SDS011;2239;48.152;11.584;2024-02-15T04:12:00;1.90;;;1.10;;
4452;SDS011;2239;48.152;11.584;2024-02-15T04:14:26;3.33;;;1.20;;
4452;SDS011;2239;48.152;11.584;2024-02-15T04:16:52;2.70;;;1.40;;
4452;SDS011;2239;48.152;11.584;2024-02-15T04:19:18;1.60;;;0.87;;
4452;SDS011;2239;48.152;11.584;2024-02-15T04:21:45;7.93;;;1.10;;
4452;SDS011;2239;48.152;11.584;2024-02-15T04:24:11;1.23;;;1.00;;
4452;SDS011;2239;48.152;11.584;2024-02-15T04:26:37;2.10;;;1.23;;
4452;SDS011;2239;48.152;11.584;2024-02-15T04:29:03;1.50;;;0.90;;
4452;SDS011;2239;48.152;11.584;2024-02-15T04:31:29;3.70;;;1.30;;
4452;SDS011;2239;48.152;11.584;2024-02-15T04:33:56;8.13;;;1.17;;
4452;SDS011;2239;48.152;11.584;2024-02-15T04:36:22;2.10;;;1.23;;
4452;SDS011;2239;48.152;11.584;2024-02-15T04:38:51;3.37;;;1.27;;
4452;SDS011;2239;48.152;11.584;2024-02-15T04:41:17;3.20;;;1.10;;
4452;SDS011;2239;48.152;11.584;2024-02-15T04:43:48;1.37;;;1.07;;
4452;SDS011;2239;48.152;11.584;2024-02-15T04:46:15;2.10;;;1.13;;
4452;SDS011;2239;48.152;11.584;2024-02-15T04:48:41;3.50;;;0.93;;
4452;SDS011;2239;48.152;11.584;2024-02-15T04:51:07;2.50;;;1.30;;
4452;SDS011;2239;48.152;11.584;2024-02-15T04:53:34;4.13;;;1.23;;
4452;SDS011;2239;48.152;11.584;2024-02-15T04:56:01;2.97;;;1.30;;
4452;SDS011;2239;48.152;11.584;2024-02-15T04:58:31;1.83;;;1.10;;
4452;SDS011;2239;48.152;11.584;2024-02-15T05:01:01;1.57;;;1.13;;
4452;SDS011;2239;48.152;11.584;2024-02-15T05:03:29;3.30;;;1.20;;
4452;SDS011;2239;48.152;11.584;2024-02-15T05:05:59;1.47;;;1.20;;
4452;SDS011;2239;48.152;11.584;2024-02-15T05:08:25;3.13;;;1.17;;
4452;SDS011;2239;48.152;11.584;2024-02-15T05:10:51;2.00;;;1.20;;
4452;SDS011;2239;48.152;11.584;2024-02-15T05:13:21;3.30;;;1.23;;
4452;SDS011;2239;48.152;11.584;2024-02-15T05:15:49;2.27;;;1.00;;
4452;SDS011;2239;48.152;11.584;2024-02-15T05:18:14;2.00;;;1.23;;
4452;SDS011;2239;48.152;11.584;2024-02-15T05:20:41;1.20;;;1.10;;
4452;SDS011;2239;48.152;11.584;2024-02-15T05:23:07;3.10;;;0.90;;
4452;SDS011;2239;48.152;11.584;2024-02-15T05:25:33;2.63;;;1.40;;
4452;SDS011;2239;48.152;11.584;2024-02-15T05:28:00;3.30;;;1.30;;
4452;SDS011;2239;48.152;11.584;2024-02-15T05:30:26;1.50;;;1.23;;
4452;SDS011;2239;48.152;11.584;2024-02-15T05:32:52;2.30;;;1.07;;
4452;SDS011;2239;48.152;11.584;2024-02-15T05:35:18;1.30;;;1.10;;
4452;SDS011;2239;48.152;11.584;2024-02-15T05:37:44;1.33;;;0.80;;
4452;SDS011;2239;48.152;11.584;2024-02-15T05:40:11;1.20;;;1.07;;
4452;SDS011;2239;48.152;11.584;2024-02-15T05:42:41;2.70;;;1.20;;
4452;SDS011;2239;48.152;11.584;2024-02-15T05:47:54;2.00;;;1.37;;
4452;SDS011;2239;48.152;11.584;2024-02-15T05:50:19;2.80;;;1.40;;
4452;SDS011;2239;48.152;11.584;2024-02-15T05:52:46;2.13;;;1.20;;
4452;SDS011;2239;48.152;11.584;2024-02-15T05:55:12;8.40;;;1.47;;
4452;SDS011;2239;48.152;11.584;2024-02-15T05:57:41;2.70;;;1.43;;
4452;SDS011;2239;48.152;11.584;2024-02-15T06:00:10;1.43;;;1.23;;
4452;SDS011;2239;48.152;11.584;2024-02-15T06:02:36;2.40;;;1.17;;
4452;SDS011;2239;48.152;11.584;2024-02-15T06:05:02;2.23;;;1.10;;
4452;SDS011;2239;48.152;11.584;2024-02-15T06:07:30;1.00;;;0.77;;
4452;SDS011;2239;48.152;11.584;2024-02-15T06:09:59;3.07;;;0.90;;
4452;SDS011;2239;48.152;11.584;2024-02-15T06:12:28;1.83;;;1.03;;
4452;SDS011;2239;48.152;11.584;2024-02-15T06:14:54;8.43;;;1.20;;
4452;SDS011;2239;48.152;11.584;2024-02-15T06:17:20;1.80;;;1.00;;
4452;SDS011;2239;48.152;11.584;2024-02-15T06:19:46;2.30;;;0.90;;
4452;SDS011;2239;48.152;11.584;2024-02-15T06:22:12;2.97;;;0.90;;
4452;SDS011;2239;48.152;11.584;2024-02-15T06:24:37;1.87;;;1.20;;
4452;SDS011;2239;48.152;11.584;2024-02-15T06:27:04;1.40;;;0.93;;
4452;SDS011;2239;48.152;11.584;2024-02-15T06:29:30;1.23;;;0.70;;
4452;SDS011;2239;48.152;11.584;2024-02-15T06:32:15;1.07;;;0.77;;
4452;SDS011;2239;48.152;11.584;2024-02-15T06:34:59;3.67;;;1.30;;
4452;SDS011;2239;48.152;11.584;2024-02-15T06:37:51;1.17;;;0.93;;
4452;SDS011;2239;48.152;11.584;2024-02-15T06:40:45;2.97;;;1.10;;
4452;SDS011;2239;48.152;11.584;2024-02-15T06:43:11;1.53;;;0.90;;
4452;SDS011;2239;48.152;11.584;2024-02-15T06:45:37;1.77;;;1.40;;
4452;SDS011;2239;48.152;11.584;2024-02-15T06:48:03;5.20;;;0.90;;
4452;SDS011;2239;48.152;11.584;2024-02-15T06:50:29;1.73;;;1.40;;
4452;SDS011;2239;48.152;11.584;2024-02-15T06:52:55;1.13;;;1.00;;
4452;SDS011;2239;48.152;11.584;2024-02-15T06:55:21;7.83;;;1.47;;
4452;SDS011;2239;48.152;11.584;2024-02-15T06:57:47;4.27;;;1.47;;
4452;SDS011;2239;48.152;11.584;2024-02-15T07:00:13;1.00;;;0.90;;
4452;SDS011;2239;48.152;11.584;2024-02-15T07:02:40;2.00;;;1.00;;
4452;SDS011;2239;48.152;11.584;2024-02-15T07:05:09;3.60;;;1.40;;
4452;SDS011;2239;48.152;11.584;2024-02-15T07:07:35;3.40;;;1.23;;
4452;SDS011;2239;48.152;11.584;2024-02-15T07:10:01;6.00;;;1.13;;
4452;SDS011;2239;48.152;11.584;2024-02-15T07:12:28;2.50;;;1.13;;
4452;SDS011;2239;48.152;11.584;2024-02-15T07:14:53;4.73;;;1.57;;
4452;SDS011;2239;48.152;11.584;2024-02-15T07:17:19;2.60;;;1.20;;
4452;SDS011;2239;48.152;11.584;2024-02-15T07:19:45;3.50;;;1.30;;
4452;SDS011;2239;48.152;11.584;2024-02-15T07:22:14;1.80;;;0.90;;
4452;SDS011;2239;48.152;11.584;2024-02-15T07:24:40;2.10;;;1.03;;
4452;SDS011;2239;48.152;11.584;2024-02-15T07:27:05;2.70;;;1.10;;
4452;SDS011;2239;48.152;11.584;2024-02-15T07:29:31;5.00;;;1.47;;
4452;SDS011;2239;48.152;11.584;2024-02-15T07:31:57;5.83;;;1.33;;
4452;SDS011;2239;48.152;11.584;2024-02-15T07:34:25;3.70;;;1.50;;
4452;SDS011;2239;48.152;11.584;2024-02-15T07:36:51;2.23;;;1.30;;
4452;SDS011;2239;48.152;11.584;2024-02-15T07:39:17;3.27;;;1.40;;
4452;SDS011;2239;48.152;11.584;2024-02-15T07:41:49;2.93;;;1.47;;
4452;SDS011;2239;48.152;11.584;2024-02-15T07:44:15;6.40;;;1.30;;
4452;SDS011;2239;48.152;11.584;2024-02-15T07:46:42;6.33;;;1.60;;
4452;SDS011;2239;48.152;11.584;2024-02-15T07:49:08;1.50;;;1.20;;
4452;SDS011;2239;48.152;11.584;2024-02-15T07:51:34;2.53;;;1.27;;
4452;SDS011;2239;48.152;11.584;2024-02-15T07:54:01;4.97;;;1.30;;
4452;SDS011;2239;48.152;11.584;2024-02-15T07:56:26;2.03;;;1.20;;
4452;SDS011;2239;48.152;11.584;2024-02-15T07:58:52;1.97;;;1.13;;
4452;SDS011;2239;48.152;11.584;2024-02-15T08:01:18;1.97;;;1.17;;
4452;SDS011;2239;48.152;11.584;2024-02-15T08:03:46;3.83;;;1.40;;
4452;SDS011;2239;48.152;11.584;2024-02-15T08:06:12;3.07;;;1.30;;
4452;SDS011;2239;48.152;11.584;2024-02-15T08:08:40;1.40;;;1.20;;
4452;SDS011;2239;48.152;11.584;2024-02-15T08:11:10;5.80;;;1.40;;
4452;SDS011;2239;48.152;11.584;2024-02-15T08:13:46;4.20;;;1.57;;
4452;SDS011;2239;48.152;11.584;2024-02-15T08:16:19;2.77;;;1.53;;
4452;SDS011;2239;48.152;11.584;2024-02-15T08:18:47;2.40;;;1.40;;
4452;SDS011;2239;48.152;11.584;2024-02-15T08:21:13;2.40;;;1.40;;
4452;SDS011;2239;48.152;11.584;2024-02-15T08:23:39;3.20;;;1.57;;
4452;SDS011;2239;48.152;11.584;2024-02-15T08:26:05;2.10;;;1.50;;
4452;SDS011;2239;48.152;11.584;2024-02-15T08:28:31;2.90;;;1.43;;
4452;SDS011;2239;48.152;11.584;2024-02-15T08:30:56;2.20;;;1.50;;
4452;SDS011;2239;48.152;11.584;2024-02-15T08:33:23;5.17;;;1.57;;
4452;SDS011;2239;48.152;11.584;2024-02-15T08:35:49;4.33;;;1.70;;
4452;SDS011;2239;48.152;11.584;2024-02-15T08:38:14;5.40;;;1.70;;
4452;SDS011;2239;48.152;11.584;2024-02-15T08:40:40;2.63;;;1.60;;
4452;SDS011;2239;48.152;11.584;2024-02-15T08:43:05;7.93;;;1.83;;
4452;SDS011;2239;48.152;11.584;2024-02-15T08:45:31;2.03;;;1.30;;
4452;SDS011;2239;48.152;11.584;2024-02-15T08:47:57;2.47;;;1.53;;
4452;SDS011;2239;48.152;11.584;2024-02-15T08:50:22;2.30;;;1.33;;
4452;SDS011;2239;48.152;11.584;2024-02-15T08:52:48;3.03;;;1.60;;
4452;SDS011;2239;48.152;11.584;2024-02-15T08:55:14;4.30;;;1.60;;
4452;SDS011;2239;48.152;11.584;2024-02-15T08:57:42;2.60;;;1.40;;
4452;SDS011;2239;48.152;11.584;2024-02-15T09:00:09;4.63;;;1.40;;
4452;SDS011;2239;48.152;11.584;2024-02-15T09:02:39;2.63;;;1.40;;
4452;SDS011;2239;48.152;11.584;2024-02-15T09:05:05;3.10;;;1.30;;
4452;SDS011;2239;48.152;11.584;2024-02-15T09:07:31;2.27;;;1.50;;
4452;SDS011;2239;48.152;11.584;2024-02-15T09:09:57;4.20;;;1.77;;
4452;SDS011;2239;48.152;11.584;2024-02-15T09:12:24;6.80;;;1.60;;
4452;SDS011;2239;48.152;11.584;2024-02-15T09:14:49;6.33;;;1.77;;
4452;SDS011;2239;48.152;11.584;2024-02-15T09:17:15;3.50;;;1.40;;
4452;SDS011;2239;48.152;11.584;2024-02-15T09:19:41;3.40;;;1.53;;
4452;SDS011;2239;48.152;11.584;2024-02-15T09:22:06;3.03;;;1.80;;
4452;SDS011;2239;48.152;11.584;2024-02-15T09:24:32;2.53;;;1.73;;
4452;SDS011;2239;48.152;11.584;2024-02-15T09:27:01;2.10;;;1.50;;
4452;SDS011;2239;48.152;11.584;2024-02-15T09:29:28;1.80;;;1.40;;
4452;SDS011;2239;48.152;11.584;2024-02-15T09:31:59;3.30;;;1.60;;
4452;SDS011;2239;48.152;11.584;2024-02-15T09:34:28;7.03;;;2.50;;
4452;SDS011;2239;48.152;11.584;2024-02-15T09:36:53;3.73;;;1.67;;
4452;SDS011;2239;48.152;11.584;2024-02-15T09:39:21;5.20;;;1.80;;
4452;SDS011;2239;48.152;11.584;2024-02-15T09:41:48;3.10;;;1.57;;
4452;SDS011;2239;48.152;11.584;2024-02-15T09:44:20;1.97;;;1.20;;
4452;SDS011;2239;48.152;11.584;2024-02-15T09:46:46;2.97;;;1.73;;
4452;SDS011;2239;48.152;11.584;2024-02-15T09:49:18;2.10;;;1.30;;
4452;SDS011;2239;48.152;11.584;2024-02-15T09:51:45;2.70;;;1.50;;
4452;SDS011;2239;48.152;11.584;2024-02-15T09:54:13;2.60;;;1.60;;
4452;SDS011;2239;48.152;11.584;2024-02-15T09:56:47;4.33;;;1.30;;
4452;SDS011;2239;48.152;11.584;2024-02-15T09:59:12;1.67;;;1.30;;
4452;SDS011;2239;48.152;11.584;2024-02-15T10:01:38;6.07;;;1.50;;
4452;SDS011;2239;48.152;11.584;2024-02-15T10:04:05;2.70;;;0.87;;
4452;SDS011;2239;48.152;11.584;2024-02-15T10:06:32;3.87;;;1.20;;
4452;SDS011;2239;48.152;11.584;2024-02-15T10:09:22;1.87;;;1.30;;
4452;SDS011;2239;48.152;11.584;2024-02-15T10:11:53;1.63;;;0.90;;
4452;SDS011;2239;48.152;11.584;2024-02-15T10:14:23;1.33;;;1.00;;
4452;SDS011;2239;48.152;11.584;2024-02-15T10:16:50;1.87;;;1.03;;
4452;SDS011;2239;48.152;11.584;2024-02-15T10:19:17;1.50;;;1.00;;
4452;SDS011;2239;48.152;11.584;2024-02-15T10:21:45;3.70;;;1.07;;
4452;SDS011;2239;48.152;11.584;2024-02-15T10:24:11;1.33;;;0.83;;
4452;SDS011;2239;48.152;11.584;2024-02-15T10:26:37;3.80;;;1.10;;
4452;SDS011;2239;48.152;11.584;2024-02-15T10:29:06;1.43;;;1.03;;
4452;SDS011;2239;48.152;11.584;2024-02-15T10:31:34;3.07;;;0.90;;
4452;SDS011;2239;48.152;11.584;2024-02-15T10:34:02;2.13;;;0.90;;
4452;SDS011;2239;48.152;11.584;2024-02-15T10:36:32;0.87;;;0.70;;
4452;SDS011;2239;48.152;11.584;2024-02-15T10:39:10;2.07;;;1.10;;
4452;SDS011;2239;48.152;11.584;2024-02-15T10:41:38;1.63;;;0.87;;
4452;SDS011;2239;48.152;11.584;2024-02-15T10:44:05;1.83;;;1.33;;
4452;SDS011;2239;48.152;11.584;2024-02-15T10:46:31;1.10;;;0.90;;
4452;SDS011;2239;48.152;11.584;2024-02-15T10:48:58;1.70;;;0.60;;
4452;SDS011;2239;48.152;11.584;2024-02-15T10:51:24;2.97;;;0.80;;
4452;SDS011;2239;48.152;11.584;2024-02-15T10:53:55;1.50;;;0.80;;
4452;SDS011;2239;48.152;11.584;2024-02-15T10:56:32;1.10;;;0.80;;
4452;SDS011;2239;48.152;11.584;2024-02-15T10:59:10;1.53;;;0.90;;
4452;SDS011;2239;48.152;11.584;2024-02-15T11:01:41;3.10;;;0.80;;
4452;SDS011;2239;48.152;11.584;2024-02-15T11:04:09;1.13;;;1.03;;
4452;SDS011;2239;48.152;11.584;2024-02-15T11:06:39;1.10;;;0.90;;
4452;SDS011;2239;48.152;11.584;2024-02-15T11:09:07;1.43;;;0.80;;
4452;SDS011;2239;48.152;11.584;2024-02-15T11:11:33;2.03;;;0.83;;
4452;SDS011;2239;48.152;11.584;2024-02-15T11:16:55;4.87;;;1.20;;
4452;SDS011;2239;48.152;11.584;2024-02-15T11:22:07;1.83;;;1.10;;
4452;SDS011;2239;48.152;11.584;2024-02-15T11:24:35;0.90;;;0.80;;
4452;SDS011;2239;48.152;11.584;2024-02-15T11:27:05;1.97;;;0.80;;
4452;SDS011;2239;48.152;11.584;2024-02-15T11:35:07;0.90;;;0.60;;
4452;SDS011;2239;48.152;11.584;2024-02-15T11:40:15;2.00;;;0.80;;
4452;SDS011;2239;48.152;11.584;2024-02-15T11:42:42;3.57;;;0.80;;
4452;SDS011;2239;48.152;11.584;2024-02-15T11:45:08;6.63;;;0.90;;
4452;SDS011;2239;48.152;11.584;2024-02-15T11:47:37;1.53;;;0.70;;
4452;SDS011;2239;48.152;11.584;2024-02-15T11:50:08;2.03;;;0.90;;
4452;SDS011;2239;48.152;11.584;2024-02-15T11:52:40;2.40;;;1.00;;
4452;SDS011;2239;48.152;11.584;2024-02-15T11:55:11;1.27;;;0.90;;
4452;SDS011;2239;48.152;11.584;2024-02-15T11:57:41;1.00;;;0.70;;
4452;SDS011;2239;48.152;11.584;2024-02-15T12:00:34;0.83;;;0.73;;
4452;SDS011;2239;48.152;11.584;2024-02-15T12:03:19;1.97;;;0.70;;
4452;SDS011;2239;48.152;11.584;2024-02-15T12:06:10;0.90;;;0.80;;
4452;SDS011;2239;48.152;11.584;2024-02-15T12:08:54;2.03;;;1.00;;
4452;SDS011;2239;48.152;11.584;2024-02-15T12:11:39;2.00;;;1.17;;
4452;SDS011;2239;48.152;11.584;2024-02-15T12:14:24;1.23;;;0.80;;
4452;SDS011;2239;48.152;11.584;2024-02-15T12:17:10;0.80;;;0.70;;
4452;SDS011;2239;48.152;11.584;2024-02-15T12:19:56;1.50;;;1.07;;
4452;SDS011;2239;48.152;11.584;2024-02-15T12:25:01;2.20;;;0.90;;
4452;SDS011;2239;48.152;11.584;2024-02-15T12:27:54;1.57;;;0.90;;
4452;SDS011;2239;48.152;11.584;2024-02-15T12:30:21;0.90;;;0.80;;
4452;SDS011;2239;48.152;11.584;2024-02-15T12:32:51;0.80;;;0.70;;
4452;SDS011;2239;48.152;11.584;2024-02-15T12:35:18;1.50;;;0.90;;
4452;SDS011;2239;48.152;11.584;2024-02-15T12:40:12;1.23;;;0.97;;
4452;SDS011;2239;48.152;11.584;2024-02-15T12:42:47;2.03;;;0.77;;
4452;SDS011;2239;48.152;11.584;2024-02-15T12:45:16;1.10;;;0.77;;
4452;SDS011;2239;48.152;11.584;2024-02-15T12:47:54;4.77;;;0.80;;
4452;SDS011;2239;48.152;11.584;2024-02-15T12:50:21;1.10;;;1.00;;
4452;SDS011;2239;48.152;11.584;2024-02-15T12:52:56;4.25;;;1.15;;
4452;SDS011;2239;48.152;11.584;2024-02-15T12:55:31;2.05;;;0.70;;
4452;SDS011;2239;48.152;11.584;2024-02-15T12:58:01;2.67;;;0.97;;
4452;SDS011;2239;48.152;11.584;2024-02-15T13:00:34;1.00;;;0.90;;
4452;SDS011;2239;48.152;11.584;2024-02-15T13:03:07;1.27;;;0.80;;
4452;SDS011;2239;48.152;11.584;2024-02-15T13:05:35;1.40;;;0.80;;
4452;SDS011;2239;48.152;11.584;2024-02-15T13:08:01;1.50;;;0.90;;
4452;SDS011;2239;48.152;11.584;2024-02-15T13:10:28;1.30;;;0.80;;
4452;SDS011;2239;48.152;11.584;2024-02-15T13:12:54;0.80;;;0.77;;
4452;SDS011;2239;48.152;11.584;2024-02-15T13:15:21;0.93;;;0.67;;
4452;SDS011;2239;48.152;11.584;2024-02-15T13:17:52;1.40;;;0.93;;
4452;SDS011;2239;48.152;11.584;2024-02-15T13:20:21;1.70;;;0.80;;
4452;SDS011;2239;48.152;11.584;2024-02-15T13:23:02;2.27;;;0.90;;
4452;SDS011;2239;48.152;11.584;2024-02-15T13:25:48;2.43;;;0.70;;
4452;SDS011;2239;48.152;11.584;2024-02-15T13:28:14;1.80;;;0.90;;
4452;SDS011;2239;48.152;11.584;2024-02-15T13:30:40;1.73;;;0.90;;
4452;SDS011;2239;48.152;11.584;2024-02-15T13:33:08;1.63;;;0.90;;
4452;SDS011;2239;48.152;11.584;2024-02-15T13:35:34;6.53;;;1.47;;
4452;SDS011;2239;48.152;11.584;2024-02-15T13:38:01;1.40;;;1.27;;
4452;SDS011;2239;48.152;11.584;2024-02-15T13:40:27;3.83;;;1.10;;
4452;SDS011;2239;48.152;11.584;2024-02-15T13:42:55;2.13;;;0.83;;
4452;SDS011;2239;48.152;11.584;2024-02-15T13:45:29;1.67;;;0.87;;
4452;SDS011;2239;48.152;11.584;2024-02-15T13:47:58;1.10;;;0.70;;
4452;SDS011;2239;48.152;11.584;2024-02-15T13:50:25;1.20;;;1.00;;
4452;SDS011;2239;48.152;11.584;2024-02-15T13:52:53;3.73;;;1.10;;
4452;SDS011;2239;48.152;11.584;2024-02-15T13:55:18;1.40;;;0.80;;
4452;SDS011;2239;48.152;11.584;2024-02-15T13:57:46;1.47;;;0.90;;
4452;SDS011;2239;48.152;11.584;2024-02-15T14:00:15;1.40;;;1.00;;
4452;SDS011;2239;48.152;11.584;2024-02-15T14:05:20;1.67;;;0.90;;
4452;SDS011;2239;48.152;11.584;2024-02-15T14:07:51;3.10;;;1.00;;
4452;SDS011;2239;48.152;11.584;2024-02-15T14:10:30;0.90;;;0.80;;
4452;SDS011;2239;48.152;11.584;2024-02-15T14:12:57;0.80;;;0.80;;
4452;SDS011;2239;48.152;11.584;2024-02-15T14:15:30;2.53;;;1.30;;
4452;SDS011;2239;48.152;11.584;2024-02-15T14:18:02;1.23;;;0.90;;
4452;SDS011;2239;48.152;11.584;2024-02-15T14:20:29;2.17;;;1.07;;
4452;SDS011;2239;48.152;11.584;2024-02-15T14:22:54;1.00;;;0.90;;
4452;SDS011;2239;48.152;11.584;2024-02-15T14:25:24;1.33;;;0.80;;
4452;SDS011;2239;48.152;11.584;2024-02-15T14:27:56;0.80;;;0.80;;
4452;SDS011;2239;48.152;11.584;2024-02-15T14:30:22;1.33;;;0.90;;
4452;SDS011;2239;48.152;11.584;2024-02-15T14:33:06;1.03;;;0.80;;
4452;SDS011;2239;48.152;11.584;2024-02-15T14:35:36;2.90;;;1.00;;
4452;SDS011;2239;48.152;11.584;2024-02-15T14:38:04;1.10;;;0.80;;
4452;SDS011;2239;48.152;11.584;2024-02-15T14:40:35;6.00;;;1.10;;
4452;SDS011;2239;48.152;11.584;2024-02-15T14:43:01;1.80;;;0.87;;
4452;SDS011;2239;48.152;11.584;2024-02-15T14:45:29;1.17;;;1.07;;
4452;SDS011;2239;48.152;11.584;2024-02-15T14:47:57;1.47;;;0.90;;
4452;SDS011;2239;48.152;11.584;2024-02-15T14:50:23;1.30;;;1.00;;
4452;SDS011;2239;48.152;11.584;2024-02-15T14:52:50;1.50;;;1.10;;
4452;SDS011;2239;48.152;11.584;2024-02-15T14:55:18;1.63;;;1.10;;
4452;SDS011;2239;48.152;11.584;2024-02-15T14:57:44;4.13;;;1.10;;
4452;SDS011;2239;48.152;11.584;2024-02-15T15:00:10;2.07;;;0.87;;
4452;SDS011;2239;48.152;11.584;2024-02-15T15:02:42;1.30;;;1.00;;
4452;SDS011;2239;48.152;11.584;2024-02-15T15:05:12;1.20;;;0.90;;
4452;SDS011;2239;48.152;11.584;2024-02-15T15:07:57;1.47;;;1.00;;
4452;SDS011;2239;48.152;11.584;2024-02-15T15:10:41;1.60;;;1.20;;
4452;SDS011;2239;48.152;11.584;2024-02-15T15:13:25;2.40;;;1.23;;
4452;SDS011;2239;48.152;11.584;2024-02-15T15:15:51;2.40;;;1.00;;
4452;SDS011;2239;48.152;11.584;2024-02-15T15:18:17;2.40;;;1.40;;
4452;SDS011;2239;48.152;11.584;2024-02-15T15:20:43;1.37;;;1.13;;
4452;SDS011;2239;48.152;11.584;2024-02-15T15:23:09;2.03;;;1.40;;
4452;SDS011;2239;48.152;11.584;2024-02-15T15:25:35;3.27;;;1.23;;
4452;SDS011;2239;48.152;11.584;2024-02-15T15:28:02;1.10;;;1.00;;
4452;SDS011;2239;48.152;11.584;2024-02-15T15:30:29;1.77;;;1.17;;